Time;durP1;ratioP1;P1;durP2;ratioP2;P2;SDS_P1;SDS_P2;PMS_P1;PMS_P2;Temp;Humidity;BMP_temperature;BMP_pressure;BME280_temperature;BME280_humidity;BME280_pressure;Samples;Min_cycle;Max_cycle;Signal;HPM_P1;HPM_P2
2023/09/04 00:00:56;;;;;;;1.00;0.50;;;11.90;46.10;;;;;;4989242;28;20038;-79
2023/09/04 00:03:22;;;;;;;0.60;0.60;;;11.90;50.90;;;;;;4987058;28;20035;-79
2023/09/04 00:05:48;;;;;;;0.80;0.80;;;11.80;56.30;;;;;;4975738;28;20048;-79
2023/09/04 00:08:14;;;;;;;1.00;0.88;;;11.80;61.30;;;;;;4986857;28;20399;-79
2023/09/04 00:10:40;;;;;;;3.08;1.27;;;11.80;65.60;;;;;;4988077;28;20038;-79
2023/09/04 00:13:06;;;;;;;2.95;1.30;;;11.70;70.90;;;;;;4988921;28;20052;-79
2023/09/04 00:15:31;;;;;;;1.60;1.10;;;11.70;72.60;;;;;;4983860;28;20034;-78
2023/09/04 00:17:57;;;;;;;1.30;1.00;;;11.70;83.90;;;;;;4988633;28;20073;-79
2023/09/04 00:20:24;;;;;;;3.25;1.30;;;11.70;89.50;;;;;;4987799;28;20101;-78
2023/09/04 00:22:53;;;;;;;0.70;0.70;;;11.70;80.70;;;;;;4989562;28;20046;-79
2023/09/04 00:25:18;;;;;;;1.20;0.80;;;11.70;84.90;;;;;;4988606;28;20092;-78
2023/09/04 00:27:44;;;;;;;2.30;0.80;;;11.60;89.50;;;;;;4987571;28;20050;-78
2023/09/04 00:30:10;;;;;;;0.75;0.70;;;11.60;90.80;;;;;;4989082;28;20073;-79
2023/09/04 00:32:36;;;;;;;0.98;0.70;;;11.60;90.90;;;;;;4970089;28;20213;-78
2023/09/04 00:35:01;;;;;;;1.10;1.00;;;11.50;90.80;;;;;;4986844;28;20070;-79
2023/09/04 00:37:27;;;;;;;1.88;1.10;;;11.60;89.50;;;;;;4969985;28;20084;-78
2023/09/04 00:39:52;;;;;;;1.50;1.02;;;11.50;88.90;;;;;;4970661;28;20039;-78
2023/09/04 00:42:18;;;;;;;1.90;0.98;;;11.50;90.90;;;;;;5003739;28;20073;-78
2023/09/04 00:44:46;;;;;;;2.00;0.90;;;11.60;94.90;;;;;;4978986;28;20117;-78
2023/09/04 00:47:14;;;;;;;0.70;0.60;;;11.50;95.00;;;;;;5003429;28;20126;-78
2023/09/04 00:49:41;;;;;;;0.93;0.80;;;11.50;95.10;;;;;;4986263;28;20449;-78
2023/09/04 00:52:07;;;;;;;2.63;0.70;;;11.40;94.00;;;;;;4994826;28;20417;-78
2023/09/04 00:54:34;;;;;;;1.25;1.00;;;11.40;95.30;;;;;;4985556;28;20374;-78
2023/09/04 00:57:03;;;;;;;1.50;0.90;;;11.40;93.70;;;;;;4987156;28;20031;-79
2023/09/04 00:59:29;;;;;;;1.23;1.13;;;11.30;92.00;;;;;;4970423;28;20085;-78
2023/09/04 01:01:58;;;;;;;1.63;1.13;;;11.30;94.50;;;;;;4993942;28;20042;-78
2023/09/04 01:04:24;;;;;;;0.93;0.77;;;11.30;94.30;;;;;;4977031;28;20037;-78
2023/09/04 01:06:49;;;;;;;1.08;0.70;;;11.20;94.70;;;;;;4986407;28;20424;-78
2023/09/04 01:09:16;;;;;;;1.10;0.80;;;11.20;96.50;;;;;;4989647;28;20039;-79
2023/09/04 01:11:56;;;;;;;1.42;1.02;;;11.20;95.50;;;;;;4987257;28;20650;-79
2023/09/04 01:14:24;;;;;;;1.38;1.10;;;11.10;96.10;;;;;;4996283;28;20416;-78
2023/09/04 01:16:52;;;;;;;2.78;1.73;;;11.10;96.50;;;;;;4990248;28;20038;-78
2023/09/04 01:19:19;;;;;;;1.25;1.00;;;11.10;99.20;;;;;;4997179;28;20037;-77
2023/09/04 01:21:44;;;;;;;3.08;1.10;;;11.10;99.90;;;;;;4982190;28;20073;-78
2023/09/04 01:24:10;;;;;;;2.47;0.95;;;11.00;99.90;;;;;;4983425;28;20073;-78
2023/09/04 01:26:38;;;;;;;1.00;0.82;;;11.00;99.90;;;;;;4967253;28;20051;-79
2023/09/04 01:29:30;;;;;;;0.70;0.70;;;11.00;99.90;;;;;;4984128;28;20093;-78
2023/09/04 01:32:20;;;;;;;0.70;0.50;;;11.00;99.90;;;;;;4983801;28;20050;-78
2023/09/04 01:34:49;;;;;;;0.80;0.43;;;11.00;99.90;;;;;;4983417;28;20612;-78
2023/09/04 01:37:16;;;;;;;0.45;0.40;;;10.90;99.90;;;;;;4991552;28;20070;-78
2023/09/04 01:39:43;;;;;;;1.30;0.55;;;11.00;99.90;;;;;;4985031;28;20038;-78
2023/09/04 01:42:08;;;;;;;1.20;0.90;;;10.90;99.90;;;;;;5001110;28;20050;-78
2023/09/04 01:44:34;;;;;;;0.95;0.68;;;10.90;99.90;;;;;;4988230;28;20038;-77
2023/09/04 01:47:00;;;;;;;1.27;0.50;;;10.90;99.90;;;;;;4989097;28;20470;-78
2023/09/04 01:49:25;;;;;;;0.73;0.60;;;10.90;99.90;;;;;;4993565;28;20398;-78
2023/09/04 01:51:58;;;;;;;2.25;0.60;;;10.80;99.90;;;;;;4986572;28;20563;-78
2023/09/04 01:54:23;;;;;;;0.63;0.60;;;10.80;99.90;;;;;;4992517;28;20390;-78
2023/09/04 01:56:49;;;;;;;1.05;0.70;;;10.80;99.90;;;;;;4973278;28;20045;-78
2023/09/04 01:59:15;;;;;;;0.88;0.80;;;10.70;99.90;;;;;;4985402;28;20035;-78
2023/09/04 02:01:40;;;;;;;1.25;1.02;;;10.70;99.90;;;;;;4984399;28;20042;-78
2023/09/04 02:04:06;;;;;;;1.10;0.93;;;10.70;99.90;;;;;;5000778;28;20046;-78
2023/09/04 02:06:32;;;;;;;0.60;0.57;;;10.60;99.90;;;;;;4967176;28;20042;-79
2023/09/04 02:08:58;;;;;;;0.90;0.77;;;10.60;99.90;;;;;;4993891;28;20048;-79
2023/09/04 02:11:24;;;;;;;0.77;0.60;;;10.60;99.90;;;;;;4982718;28;20062;-79
2023/09/04 02:13:49;;;;;;;0.82;0.70;;;10.50;99.90;;;;;;4981700;28;20034;-79
2023/09/04 02:16:16;;;;;;;0.63;0.55;;;10.60;99.90;;;;;;4982652;28;20109;-79
2023/09/04 02:18:41;;;;;;;0.50;0.50;;;10.50;99.90;;;;;;4997591;28;20637;-79
2023/09/04 02:21:07;;;;;;;0.68;0.52;;;10.50;99.90;;;;;;4986569;28;20031;-79
2023/09/04 02:23:33;;;;;;;0.90;0.75;;;10.50;99.90;;;;;;4968315;28;20503;-79
2023/09/04 02:25:59;;;;;;;1.00;0.60;;;10.40;99.90;;;;;;4978336;28;20034;-79
2023/09/04 02:28:24;;;;;;;1.20;0.80;;;10.40;99.90;;;;;;4985534;28;20034;-79
2023/09/04 02:30:51;;;;;;;0.93;0.80;;;10.40;99.90;;;;;;4986194;28;20064;-79
2023/09/04 02:33:16;;;;;;;2.05;0.75;;;10.30;99.90;;;;;;4969539;28;20472;-80
2023/09/04 02:35:43;;;;;;;0.95;0.77;;;10.30;99.90;;;;;;4969416;28;20127;-79
2023/09/04 02:38:09;;;;;;;1.20;0.90;;;10.30;99.90;;;;;;4986018;28;20066;-79
2023/09/04 02:40:35;;;;;;;1.65;1.30;;;10.30;99.90;;;;;;5001702;28;20046;-79
2023/09/04 02:43:00;;;;;;;1.52;1.05;;;10.30;99.90;;;;;;4985453;28;20129;-79
2023/09/04 02:45:26;;;;;;;1.67;1.02;;;10.30;99.90;;;;;;4969775;28;20478;-79
2023/09/04 02:47:52;;;;;;;1.38;1.02;;;10.30;99.90;;;;;;4985710;28;20038;-79
2023/09/04 02:50:17;;;;;;;1.02;0.93;;;10.30;99.90;;;;;;4965991;28;20031;-79
2023/09/04 02:52:43;;;;;;;1.80;1.00;;;10.20;99.90;;;;;;4985169;28;20046;-80
2023/09/04 02:55:09;;;;;;;1.77;1.17;;;10.20;99.90;;;;;;4982097;28;20077;-79
2023/09/04 02:57:35;;;;;;;2.35;1.50;;;10.10;99.90;;;;;;4987117;28;20092;-79
2023/09/04 03:00:05;;;;;;;3.20;1.52;;;10.10;99.90;;;;;;4968994;28;20104;-79
2023/09/04 03:02:32;;;;;;;3.75;1.83;;;10.00;99.90;;;;;;4967099;28;20072;-79
2023/09/04 03:04:58;;;;;;;3.50;1.63;;;10.00;99.90;;;;;;4984167;28;20038;-79
2023/09/04 03:07:27;;;;;;;2.95;1.67;;;10.00;99.90;;;;;;4968202;28;20054;-78
2023/09/04 03:09:57;;;;;;;2.60;1.88;;;10.00;99.90;;;;;;4979128;28;20478;-79
2023/09/04 03:12:30;;;;;;;2.50;1.70;;;10.10;99.90;;;;;;4985977;28;20050;-79
2023/09/04 03:15:06;;;;;;;4.15;1.80;;;10.00;99.90;;;;;;4986657;28;20123;-79
2023/09/04 03:17:33;;;;;;;2.00;1.70;;;10.00;99.90;;;;;;4985063;28;20390;-79
2023/09/04 03:19:59;;;;;;;5.50;1.60;;;10.00;99.90;;;;;;5006020;28;20552;-79
2023/09/04 03:22:26;;;;;;;2.75;1.65;;;10.00;99.90;;;;;;4985361;28;20117;-79
2023/09/04 03:24:52;;;;;;;2.92;1.42;;;10.00;99.90;;;;;;4974631;28;20100;-79
2023/09/04 03:27:18;;;;;;;2.45;1.75;;;10.00;99.90;;;;;;4992364;28;20096;-79
2023/09/04 03:29:44;;;;;;;3.03;1.23;;;10.10;99.90;;;;;;4980543;28;20060;-79
2023/09/04 03:32:10;;;;;;;7.00;1.70;;;9.90;99.90;;;;;;4996633;28;20054;-79
2023/09/04 03:34:37;;;;;;;3.10;1.10;;;9.90;99.90;;;;;;4985677;28;20081;-79
2023/09/04 03:37:03;;;;;;;2.92;1.40;;;9.90;99.90;;;;;;4984014;28;20039;-79
2023/09/04 03:39:33;;;;;;;3.80;1.50;;;9.80;99.90;;;;;;4984948;28;20121;-79
2023/09/04 03:41:59;;;;;;;2.97;1.30;;;9.70;99.90;;;;;;4982886;28;20053;-79
2023/09/04 03:44:26;;;;;;;2.15;1.42;;;9.90;99.90;;;;;;4991121;28;20473;-79
2023/09/04 03:46:52;;;;;;;2.08;1.40;;;9.70;99.90;;;;;;4996104;28;20053;-79
2023/09/04 03:49:17;;;;;;;2.13;1.50;;;9.70;99.90;;;;;;4981862;28;20464;-79
2023/09/04 03:51:43;;;;;;;2.97;1.20;;;9.70;99.90;;;;;;4987134;28;20420;-79
2023/09/04 03:54:09;;;;;;;1.48;1.10;;;9.70;99.90;;;;;;4989354;28;20069;-79
2023/09/04 03:56:35;;;;;;;2.40;1.15;;;9.60;99.90;;;;;;4977523;28;20034;-79
2023/09/04 03:59:04;;;;;;;1.77;1.20;;;9.70;99.90;;;;;;4984213;28;20038;-79
2023/09/04 04:01:31;;;;;;;1.17;0.90;;;9.50;99.90;;;;;;4980725;28;20046;-79
2023/09/04 04:03:58;;;;;;;1.35;0.90;;;9.60;99.90;;;;;;4983607;28;20042;-80
2023/09/04 04:06:25;;;;;;;0.88;0.75;;;9.50;99.90;;;;;;4970538;28;20042;-79
2023/09/04 04:08:51;;;;;;;1.23;0.82;;;9.50;99.90;;;;;;4971260;28;20770;-80
2023/09/04 04:11:19;;;;;;;1.13;0.90;;;9.60;99.90;;;;;;4972048;28;20049;-79
2023/09/04 04:13:45;;;;;;;1.52;0.80;;;9.50;99.90;;;;;;4988897;28;20102;-79
2023/09/04 04:16:10;;;;;;;1.63;0.82;;;9.50;99.90;;;;;;4997192;28;20074;-79
2023/09/04 04:18:36;;;;;;;3.72;1.00;;;9.50;99.90;;;;;;5003741;28;20440;-79
2023/09/04 04:21:02;;;;;;;2.88;0.98;;;9.40;99.90;;;;;;4986318;28;20039;-79
2023/09/04 04:23:28;;;;;;;2.67;1.20;;;9.40;99.90;;;;;;4980582;28;20065;-79
2023/09/04 04:25:54;;;;;;;1.33;1.00;;;9.50;99.90;;;;;;4983578;28;20042;-79
2023/09/04 04:28:20;;;;;;;1.20;0.82;;;9.40;99.90;;;;;;4999612;28;20070;-79
2023/09/04 04:30:47;;;;;;;1.25;0.70;;;9.40;99.90;;;;;;4985584;28;20084;-79
2023/09/04 04:33:13;;;;;;;2.55;0.60;;;9.40;99.90;;;;;;4987307;28;20046;-79
2023/09/04 04:35:42;;;;;;;1.55;0.60;;;9.40;99.90;;;;;;4987582;28;20448;-79
2023/09/04 04:38:08;;;;;;;1.00;0.70;;;9.50;99.90;;;;;;4986717;28;20044;-79
2023/09/04 04:40:36;;;;;;;3.50;0.77;;;9.40;99.90;;;;;;4983250;28;20035;-79
2023/09/04 04:43:03;;;;;;;1.27;0.75;;;9.40;99.90;;;;;;4987318;28;20046;-80
2023/09/04 04:45:29;;;;;;;2.03;0.77;;;9.40;99.90;;;;;;4998188;28;20061;-79
2023/09/04 04:47:55;;;;;;;0.50;0.50;;;9.40;99.90;;;;;;5002870;28;20034;-79
2023/09/04 04:50:21;;;;;;;1.77;0.60;;;9.40;99.90;;;;;;4990953;28;20069;-79
2023/09/04 04:52:46;;;;;;;3.33;0.85;;;9.40;99.90;;;;;;4979990;28;20124;-79
2023/09/04 04:55:12;;;;;;;1.20;0.85;;;9.30;99.90;;;;;;4992601;28;20158;-79
2023/09/04 04:57:39;;;;;;;1.33;0.82;;;9.30;99.90;;;;;;5000061;28;20042;-78
2023/09/04 05:00:09;;;;;;;1.80;1.30;;;9.30;99.90;;;;;;4982637;28;20432;-79
2023/09/04 05:02:35;;;;;;;1.08;0.80;;;9.40;99.90;;;;;;4990289;28;20042;-78
2023/09/04 05:05:00;;;;;;;1.23;0.90;;;9.40;99.90;;;;;;4994187;28;20964;-79
2023/09/04 05:07:28;;;;;;;1.65;1.13;;;9.40;99.90;;;;;;4986736;28;20123;-79
2023/09/04 05:09:54;;;;;;;3.60;1.30;;;9.40;99.90;;;;;;4989681;28;20054;-79
2023/09/04 05:12:20;;;;;;;3.85;1.20;;;9.40;99.90;;;;;;4987406;28;20060;-79
2023/09/04 05:14:46;;;;;;;2.97;1.13;;;9.40;99.90;;;;;;4983693;28;20579;-79
2023/09/04 05:17:11;;;;;;;5.30;1.30;;;9.40;99.90;;;;;;4960070;28;20642;-79
2023/09/04 05:19:37;;;;;;;3.42;1.20;;;9.40;99.90;;;;;;4985772;28;20218;-78
2023/09/04 05:22:03;;;;;;;1.75;1.10;;;9.40;99.90;;;;;;4987654;28;20038;-79
2023/09/04 05:24:28;;;;;;;1.65;1.17;;;9.50;99.90;;;;;;4986639;28;20070;-79
2023/09/04 05:26:54;;;;;;;2.72;1.75;;;9.50;99.90;;;;;;4980647;28;20110;-79
2023/09/04 05:29:20;;;;;;;2.95;1.60;;;9.50;99.90;;;;;;4988516;28;20605;-79
2023/09/04 05:31:49;;;;;;;1.70;1.23;;;9.50;99.90;;;;;;4996169;28;20054;-78
2023/09/04 05:34:14;;;;;;;1.10;1.00;;;9.50;99.90;;;;;;4976126;28;20104;-79
2023/09/04 05:36:40;;;;;;;1.75;1.02;;;9.50;99.90;;;;;;4977688;28;20042;-79
2023/09/04 05:39:06;;;;;;;0.90;0.77;;;9.60;99.90;;;;;;4985799;28;20096;-79
2023/09/04 05:41:31;;;;;;;2.25;0.90;;;9.70;99.90;;;;;;4992305;28;20053;-79
2023/09/04 05:43:57;;;;;;;1.20;0.90;;;9.80;99.90;;;;;;4968490;28;20124;-79
2023/09/04 05:46:23;;;;;;;1.55;1.05;;;10.00;99.90;;;;;;4984575;28;20070;-79
2023/09/04 05:48:48;;;;;;;1.30;1.00;;;10.10;99.90;;;;;;4985174;28;20069;-78
2023/09/04 05:51:14;;;;;;;2.33;1.30;;;10.30;99.90;;;;;;4985796;28;20116;-78
2023/09/04 05:53:40;;;;;;;1.55;1.10;;;10.50;99.90;;;;;;4986170;28;20061;-79
2023/09/04 05:56:10;;;;;;;1.35;1.20;;;10.60;99.90;;;;;;4985299;28;20038;-77
2023/09/04 05:58:47;;;;;;;2.47;1.30;;;10.80;99.90;;;;;;4983367;28;20042;-77
2023/09/04 06:01:13;;;;;;;1.55;1.17;;;11.00;99.90;;;;;;4983848;28;20038;-77
2023/09/04 06:03:40;;;;;;;5.03;1.63;;;11.10;99.90;;;;;;4986121;28;20137;-78
2023/09/04 06:06:06;;;;;;;2.75;1.35;;;11.40;99.90;;;;;;4975052;28;20050;-76
2023/09/04 06:08:33;;;;;;;1.83;1.50;;;11.70;99.90;;;;;;4984154;28;20053;-77
2023/09/04 06:10:59;;;;;;;3.20;1.60;;;12.00;99.90;;;;;;4985559;28;20034;-77
2023/09/04 06:13:25;;;;;;;1.85;1.15;;;12.10;99.90;;;;;;4986467;28;20081;-77
2023/09/04 06:15:53;;;;;;;2.40;1.60;;;12.30;99.90;;;;;;4999849;28;20043;-77
2023/09/04 06:18:19;;;;;;;2.40;1.85;;;12.30;99.90;;;;;;4984781;28;20035;-77
2023/09/04 06:20:45;;;;;;;3.90;1.67;;;12.20;99.90;;;;;;4982314;28;20030;-77
2023/09/04 06:23:11;;;;;;;3.80;1.90;;;12.30;99.90;;;;;;4985089;28;20479;-77
2023/09/04 06:25:39;;;;;;;3.97;1.80;;;12.30;99.90;;;;;;4969396;28;20096;-76
2023/09/04 06:28:14;;;;;;;4.07;2.83;;;12.20;99.90;;;;;;4984162;28;20108;-78
2023/09/04 06:30:40;;;;;;;5.07;2.92;;;12.20;99.90;;;;;;4983298;28;20460;-76
2023/09/04 06:33:06;;;;;;;6.55;3.00;;;12.20;99.90;;;;;;4983487;28;20450;-78
2023/09/04 06:35:32;;;;;;;6.47;3.35;;;12.20;99.90;;;;;;4969579;28;20046;-76
2023/09/04 06:37:58;;;;;;;10.45;5.18;;;12.20;99.90;;;;;;5008685;28;20152;-77
2023/09/04 06:40:25;;;;;;;11.05;5.60;;;12.30;99.90;;;;;;4984268;28;20445;-76
2023/09/04 06:42:53;;;;;;;9.25;4.63;;;12.40;99.90;;;;;;4976744;28;20057;-77
2023/09/04 06:45:20;;;;;;;7.45;4.40;;;12.40;99.90;;;;;;4970736;28;20036;-78
2023/09/04 06:47:46;;;;;;;8.82;4.97;;;12.50;99.90;;;;;;4984905;28;20092;-77
2023/09/04 06:50:11;;;;;;;7.30;5.60;;;12.60;99.90;;;;;;4984569;28;20475;-77
2023/09/04 06:52:37;;;;;;;8.75;5.90;;;12.60;99.90;;;;;;4982359;28;20046;-77
2023/09/04 06:55:04;;;;;;;9.23;6.05;;;12.70;99.90;;;;;;4974419;28;20043;-78
2023/09/04 06:57:30;;;;;;;8.05;6.00;;;12.80;99.90;;;;;;4997551;28;20038;-77
2023/09/04 06:59:56;;;;;;;8.27;6.53;;;12.80;99.90;;;;;;4981714;28;20038;-77
2023/09/04 07:02:22;;;;;;;11.07;6.68;;;12.90;99.90;;;;;;4988731;28;20041;-77
2023/09/04 07:04:48;;;;;;;8.70;6.13;;;13.00;99.90;;;;;;4974029;28;20038;-77
2023/09/04 07:07:13;;;;;;;9.38;7.00;;;13.00;99.90;;;;;;4982425;28;20046;-77
2023/09/04 07:09:39;;;;;;;13.63;9.48;;;13.10;99.90;;;;;;4984737;28;20401;-77
2023/09/04 07:12:05;;;;;;;12.05;8.05;;;13.30;99.90;;;;;;5002521;28;20038;-76
2023/09/04 07:14:32;;;;;;;13.15;8.45;;;13.40;99.90;;;;;;4989924;28;20046;-75
2023/09/04 07:16:58;;;;;;;12.15;8.38;;;13.40;99.90;;;;;;4973654;28;20030;-76
2023/09/04 07:19:23;;;;;;;11.00;8.38;;;13.50;99.90;;;;;;4981725;28;20045;-77
2023/09/04 07:21:49;;;;;;;14.63;9.43;;;13.60;99.90;;;;;;4997988;28;20582;-76
2023/09/04 07:24:15;;;;;;;15.93;10.02;;;13.70;99.90;;;;;;4966446;28;20113;-76
2023/09/04 07:26:40;;;;;;;16.77;10.07;;;13.80;99.90;;;;;;4981081;28;20042;-77
2023/09/04 07:29:06;;;;;;;13.43;9.55;;;13.90;99.90;;;;;;4974859;28;20081;-77
2023/09/04 07:31:32;;;;;;;13.52;9.05;;;14.00;99.90;;;;;;4970966;28;20101;-77
2023/09/04 07:33:58;;;;;;;11.00;8.52;;;14.10;99.90;;;;;;4984076;28;20034;-77
2023/09/04 07:36:24;;;;;;;10.73;8.55;;;14.20;99.90;;;;;;4984845;28;20600;-77
2023/09/04 07:38:49;;;;;;;14.07;8.45;;;14.30;99.90;;;;;;4983068;28;20077;-77
2023/09/04 07:41:15;;;;;;;11.35;8.27;;;14.40;99.90;;;;;;4982074;28;20034;-77
2023/09/04 07:43:40;;;;;;;12.95;8.38;;;14.50;99.90;;;;;;4995061;28;20054;-77
2023/09/04 07:46:06;;;;;;;9.63;7.15;;;14.60;99.90;;;;;;4976252;28;20066;-77
2023/09/04 07:48:33;;;;;;;10.82;6.97;;;14.70;99.90;;;;;;4974663;28;20133;-77
2023/09/04 07:50:59;;;;;;;8.98;6.18;;;14.80;99.90;;;;;;4985415;28;20046;-77
2023/09/04 07:53:25;;;;;;;8.68;6.57;;;14.90;99.90;;;;;;4986033;28;20034;-77
2023/09/04 07:55:51;;;;;;;9.43;6.22;;;15.00;99.90;;;;;;4972125;28;20092;-77
2023/09/04 07:58:17;;;;;;;12.35;6.20;;;15.10;99.90;;;;;;4976849;28;20488;-77
2023/09/04 08:00:48;;;;;;;7.22;5.97;;;15.20;99.90;;;;;;4985719;28;20061;-76
2023/09/04 08:03:14;;;;;;;6.55;5.82;;;15.30;99.90;;;;;;4986418;28;20563;-78
2023/09/04 08:05:40;;;;;;;7.43;4.97;;;15.40;99.90;;;;;;4971125;28;20042;-77
2023/09/04 08:08:10;;;;;;;7.88;4.90;;;15.50;99.90;;;;;;4968789;28;20042;-78
2023/09/04 08:10:44;;;;;;;6.22;4.82;;;15.50;99.90;;;;;;5001133;28;20042;-77
2023/09/04 08:13:12;;;;;;;4.97;4.47;;;15.60;99.90;;;;;;5001165;28;20599;-77
2023/09/04 08:15:38;;;;;;;8.55;4.70;;;15.70;99.90;;;;;;4989637;28;20030;-77
2023/09/04 08:18:04;;;;;;;5.20;4.40;;;15.70;99.90;;;;;;4964532;28;20038;-76
2023/09/04 08:20:30;;;;;;;6.70;4.43;;;15.80;99.90;;;;;;4991891;28;20046;-77
2023/09/04 08:22:56;;;;;;;4.30;3.90;;;15.90;99.90;;;;;;4991474;28;20049;-77
2023/09/04 08:25:21;;;;;;;4.43;3.80;;;16.10;99.70;;;;;;4986596;28;20053;-76
2023/09/04 08:27:47;;;;;;;4.43;4.00;;;16.10;95.40;;;;;;5004426;28;20038;-76
2023/09/04 08:30:13;;;;;;;5.53;4.07;;;16.20;91.80;;;;;;5002016;28;20138;-76
2023/09/04 08:32:38;;;;;;;4.35;3.95;;;16.30;85.70;;;;;;4981933;28;20051;-76
2023/09/04 08:35:05;;;;;;;4.20;3.80;;;16.30;77.10;;;;;;5004029;28;20069;-77
2023/09/04 08:37:31;;;;;;;5.65;3.67;;;16.50;62.00;;;;;;4987645;28;20035;-77
2023/09/04 08:39:56;;;;;;;3.95;3.45;;;16.60;24.80;;;;;;4989194;28;20038;-77
2023/09/04 08:42:23;;;;;;;3.72;3.20;;;16.70;5.70;;;;;;4976584;28;20427;-77
2023/09/04 08:44:50;;;;;;;3.92;3.25;;;16.70;1.20;;;;;;4990251;28;20104;-76
2023/09/04 08:47:19;;;;;;;4.18;3.78;;;16.80;1.00;;;;;;5004619;28;20049;-76
2023/09/04 08:49:45;;;;;;;4.80;3.20;;;16.90;1.00;;;;;;4979418;28;20065;-77
2023/09/04 08:52:11;;;;;;;3.63;3.22;;;17.00;1.00;;;;;;5002014;28;20052;-76
2023/09/04 08:54:37;;;;;;;3.42;2.90;;;17.20;1.00;;;;;;4981417;28;20039;-76
2023/09/04 08:57:03;;;;;;;3.67;3.33;;;17.30;1.00;;;;;;4980330;28;20038;-76
2023/09/04 08:59:29;;;;;;;3.53;2.97;;;17.50;1.00;;;;;;4972283;28;20452;-77
2023/09/04 09:01:56;;;;;;;4.82;3.28;;;17.60;1.00;;;;;;4999560;28;20062;-76
2023/09/04 09:04:22;;;;;;;3.78;2.92;;;17.90;99.90;;;;;;4986224;28;20058;-77
2023/09/04 09:06:50;;;;;;;3.88;2.67;;;18.10;99.90;;;;;;4994795;28;20137;-77
2023/09/04 09:09:16;;;;;;;3.20;2.72;;;18.30;99.90;;;;;;4984385;28;20666;-76
2023/09/04 09:11:42;;;;;;;5.70;2.67;;;18.50;99.90;;;;;;4971706;28;20408;-76
2023/09/04 09:14:11;;;;;;;4.97;2.60;;;18.70;99.90;;;;;;4987467;28;20089;-77
2023/09/04 09:16:37;;;;;;;4.63;2.60;;;18.90;47.40;;;;;;4985037;28;20499;-76
2023/09/04 09:19:03;;;;;;;4.00;2.63;;;19.00;1.00;;;;;;4980993;28;20047;-74
2023/09/04 09:21:32;;;;;;;2.97;2.13;;;19.30;1.00;;;;;;4969032;28;20042;-78
2023/09/04 09:24:10;;;;;;;4.15;2.20;;;19.50;1.00;;;;;;4985320;28;20165;-77
2023/09/04 09:26:44;;;;;;;2.85;2.03;;;19.80;99.90;;;;;;4966695;28;20046;-78
2023/09/04 09:29:14;;;;;;;2.03;1.83;;;20.10;99.90;;;;;;4981644;28;20057;-77
2023/09/04 09:31:45;;;;;;;3.13;2.45;;;20.40;99.90;;;;;;4968496;28;20509;-80
2023/09/04 09:34:12;;;;;;;2.75;2.20;;;20.90;99.90;;;;;;4987656;28;20148;-78
2023/09/04 09:36:41;;;;;;;3.53;2.00;;;22.60;99.90;;;;;;4983762;28;20548;-80
2023/09/04 09:39:07;;;;;;;3.13;1.70;;;24.10;65.30;;;;;;4979152;28;20053;-79
2023/09/04 09:41:33;;;;;;;3.80;1.60;;;25.50;1.00;;;;;;4987336;28;20030;-80
2023/09/04 09:44:01;;;;;;;2.00;1.80;;;26.70;1.00;;;;;;4999360;28;20953;-80
2023/09/04 09:46:32;;;;;;;2.05;1.70;;;27.70;1.00;;;;;;5002505;28;20042;-80
2023/09/04 09:48:58;;;;;;;1.90;1.20;;;28.50;1.00;;;;;;5001939;28;20559;-80
2023/09/04 09:51:25;;;;;;;2.70;1.67;;;29.30;1.00;;;;;;4984717;28;20057;-80
2023/09/04 09:53:52;;;;;;;1.50;1.35;;;29.90;1.00;;;;;;4982985;28;20034;-80
2023/09/04 09:56:28;;;;;;;2.63;1.27;;;30.30;1.00;;;;;;4963156;28;20050;-81
2023/09/04 09:58:56;;;;;;;3.22;1.40;;;30.80;1.00;;;;;;4982485;28;20035;-78
2023/09/04 10:01:27;;;;;;;1.88;1.45;;;31.10;1.00;;;;;;4983406;28;20046;-79
2023/09/04 10:03:54;;;;;;;5.55;1.63;;;31.50;1.00;;;;;;4981808;28;20041;-78
2023/09/04 10:06:24;;;;;;;4.07;1.58;;;31.70;1.00;;;;;;4984329;28;20041;-79
2023/09/04 10:08:51;;;;;;;1.58;1.40;;;32.30;1.00;;;;;;5000905;28;20042;-79
2023/09/04 10:11:17;;;;;;;1.88;1.20;;;32.50;1.00;;;;;;4984097;28;20049;-79
2023/09/04 10:13:55;;;;;;;1.55;1.00;;;32.90;1.00;;;;;;4985492;28;20034;-79
2023/09/04 10:16:38;;;;;;;2.05;1.35;;;33.20;1.00;;;;;;4990089;28;20112;-79
2023/09/04 10:19:07;;;;;;;1.15;1.00;;;33.30;1.00;;;;;;4978477;28;20042;-79
2023/09/04 10:21:36;;;;;;;1.08;0.90;;;33.50;1.00;;;;;;4980908;28;20069;-79
2023/09/04 10:24:03;;;;;;;2.38;0.95;;;33.70;1.00;;;;;;5002170;28;20105;-79
2023/09/04 10:26:39;;;;;;;2.70;0.90;;;34.10;1.00;;;;;;4976507;28;20043;-79
2023/09/04 10:29:14;;;;;;;2.83;1.33;;;34.40;1.00;;;;;;4973508;28;20030;-79
2023/09/04 10:31:40;;;;;;;;;;;34.70;1.00;;;;;;4988282;28;20143;-79
2023/09/04 10:34:06;;;;;;;1.55;1.15;;;35.00;1.00;;;;;;4982891;28;19930;-79
2023/09/04 10:36:33;;;;;;;3.05;1.00;;;35.20;1.00;;;;;;4980817;28;20046;-79
2023/09/04 10:39:01;;;;;;;2.35;1.20;;;35.50;1.00;;;;;;4987309;28;20042;-79
2023/09/04 10:41:29;;;;;;;1.60;0.90;;;35.70;1.00;;;;;;4985796;28;20501;-79
2023/09/04 10:43:54;;;;;;;1.70;0.75;;;36.00;1.00;;;;;;4983374;28;20586;-79
2023/09/04 10:46:20;;;;;;;2.92;1.00;;;36.30;1.00;;;;;;4963695;28;20128;-79
2023/09/04 10:48:51;;;;;;;0.95;0.80;;;36.50;1.00;;;;;;4986670;28;20512;-79
2023/09/04 10:51:37;;;;;;;1.10;0.90;;;36.70;1.00;;;;;;4982695;28;20053;-79
2023/09/04 10:54:23;;;;;;;2.33;1.08;;;36.90;1.00;;;;;;4984273;28;20509;-79
2023/09/04 10:56:53;;;;;;;2.17;0.90;;;37.10;1.00;;;;;;4981566;28;20034;-79
2023/09/04 10:59:19;;;;;;;1.30;1.00;;;37.00;1.00;;;;;;4978378;28;20042;-79
2023/09/04 11:01:45;;;;;;;1.27;0.85;;;37.20;1.00;;;;;;4981642;28;20042;-79
2023/09/04 11:04:10;;;;;;;1.42;0.80;;;37.50;1.00;;;;;;4991496;28;20085;-79
2023/09/04 11:06:40;;;;;;;1.58;1.10;;;37.70;1.00;;;;;;4966524;28;20081;-78
2023/09/04 11:09:11;;;;;;;1.10;0.98;;;37.80;1.00;;;;;;4983620;28;20092;-79
2023/09/04 11:11:37;;;;;;;1.75;0.90;;;37.90;1.00;;;;;;4967476;28;20074;-79
2023/09/04 11:14:08;;;;;;;0.90;0.90;;;37.90;1.00;;;;;;4984886;28;20038;-79
2023/09/04 11:16:41;;;;;;;1.15;0.90;;;37.90;1.00;;;;;;4960951;28;20077;-79
2023/09/04 11:19:14;;;;;;;1.60;0.90;;;38.20;1.00;;;;;;5005147;28;20061;-79
2023/09/04 11:21:43;;;;;;;1.05;0.90;;;38.40;1.00;;;;;;5004358;28;20549;-79
2023/09/04 11:24:09;;;;;;;2.45;0.90;;;38.60;1.00;;;;;;5002324;28;20471;-79
2023/09/04 11:26:35;;;;;;;1.48;0.80;;;38.60;1.00;;;;;;4984557;28;20049;-79
2023/09/04 11:29:03;;;;;;;1.55;0.75;;;38.60;1.00;;;;;;4990197;28;20102;-79
2023/09/04 11:31:30;;;;;;;2.05;0.90;;;38.50;1.00;;;;;;4998262;28;20065;-78
2023/09/04 11:33:56;;;;;;;0.80;0.80;;;38.60;1.00;;;;;;4996695;28;20054;-79
2023/09/04 11:36:23;;;;;;;0.88;0.70;;;38.70;1.00;;;;;;4982177;28;20053;-79
2023/09/04 11:39:07;;;;;;;0.95;0.60;;;38.80;1.00;;;;;;4970165;28;20590;-80
2023/09/04 11:41:33;;;;;;;0.82;0.70;;;39.10;1.00;;;;;;4993402;28;20041;-78
2023/09/04 11:44:01;;;;;;;1.92;0.93;;;39.20;1.00;;;;;;4980414;28;20038;-79
2023/09/04 11:46:28;;;;;;;1.70;1.02;;;39.20;1.00;;;;;;4987730;28;20048;-79
2023/09/04 11:48:53;;;;;;;1.17;0.70;;;39.30;1.00;;;;;;4985128;28;20444;-79
2023/09/04 11:51:19;;;;;;;0.88;0.65;;;39.30;1.00;;;;;;4986056;28;20050;-79
2023/09/04 11:53:45;;;;;;;1.55;0.75;;;39.40;1.00;;;;;;4988238;28;20511;-78
2023/09/04 11:56:11;;;;;;;1.20;0.60;;;39.40;1.00;;;;;;4962955;28;20053;-79
2023/09/04 11:58:37;;;;;;;1.33;0.70;;;39.40;1.00;;;;;;4987943;28;20112;-79
2023/09/04 12:01:02;;;;;;;2.80;0.77;;;39.40;1.00;;;;;;4968697;28;20050;-79
2023/09/04 12:03:28;;;;;;;0.95;0.73;;;39.50;1.00;;;;;;4987256;28;20039;-79
2023/09/04 12:05:55;;;;;;;1.63;1.00;;;39.50;1.00;;;;;;4968790;28;20137;-79
2023/09/04 12:08:21;;;;;;;1.92;0.80;;;39.60;1.00;;;;;;4994772;28;20117;-79
2023/09/04 12:10:50;;;;;;;2.10;1.00;;;39.70;1.00;;;;;;4992886;28;20055;-79
2023/09/04 12:13:16;;;;;;;0.80;0.70;;;39.80;1.00;;;;;;4990712;28;20136;-79
2023/09/04 12:15:42;;;;;;;0.80;0.73;;;39.70;1.00;;;;;;4990120;28;20061;-79
2023/09/04 12:18:10;;;;;;;1.00;0.82;;;39.50;1.00;;;;;;4990122;28;20084;-79
2023/09/04 12:20:41;;;;;;;1.52;1.02;;;39.40;1.00;;;;;;4998335;28;20132;-78
2023/09/04 12:23:07;;;;;;;1.23;0.75;;;39.50;1.00;;;;;;4978879;28;20042;-79
2023/09/04 12:25:42;;;;;;;3.25;0.90;;;39.50;1.00;;;;;;4987517;28;20437;-79
2023/09/04 12:28:09;;;;;;;0.97;0.70;;;39.20;1.00;;;;;;4987844;28;20143;-78
2023/09/04 12:30:36;;;;;;;1.45;0.80;;;38.90;1.00;;;;;;4984231;28;20062;-79
2023/09/04 12:33:06;;;;;;;1.98;0.80;;;38.90;1.00;;;;;;4980000;28;20042;-79
2023/09/04 12:35:32;;;;;;;1.02;0.93;;;38.70;1.00;;;;;;5002852;28;20034;-79
2023/09/04 12:37:58;;;;;;;2.55;0.90;;;38.60;1.00;;;;;;4996648;28;20042;-79
2023/09/04 12:40:23;;;;;;;1.77;0.70;;;38.70;1.00;;;;;;4988343;28;20097;-80
2023/09/04 12:42:49;;;;;;;1.52;0.80;;;38.80;1.00;;;;;;4966750;28;20042;-79
2023/09/04 12:45:15;;;;;;;1.70;0.80;;;38.90;1.00;;;;;;4985449;28;20047;-79
2023/09/04 12:47:41;;;;;;;1.85;0.80;;;39.10;1.00;;;;;;4977504;28;20038;-79
2023/09/04 12:50:08;;;;;;;1.45;0.70;;;39.30;1.00;;;;;;4982032;28;20568;-78